sensor_id;sensor_type;location;lat;lon;timestamp;temperature;humidity
60287;DHT22;46141;52.382;5.270;2023-11-18T00:01:24;20.20;71.30
60287;DHT22;46141;52.382;5.270;2023-11-18T00:03:50;20.20;71.30
60287;DHT22;46141;52.382;5.270;2023-11-18T00:06:16;20.20;71.30
60287;DHT22;46141;52.382;5.270;2023-11-18T00:08:42;20.10;71.30
60287;DHT22;46141;52.382;5.270;2023-11-18T00:11:08;20.10;71.30
60287;DHT22;46141;52.382;5.270;2023-11-18T00:13:36;20.10;71.40
60287;DHT22;46141;52.382;5.270;2023-11-18T00:16:05;20.00;71.50
60287;DHT22;46141;52.382;5.270;2023-11-18T00:18:31;20.00;71.30
60287;DHT22;46141;52.382;5.270;2023-11-18T00:20:57;20.00;71.40
60287;DHT22;46141;52.382;5.270;2023-11-18T00:23:23;20.00;71.50
60287;DHT22;46141;52.382;5.270;2023-11-18T00:25:49;20.00;71.50
60287;DHT22;46141;52.382;5.270;2023-11-18T00:28:15;20.00;71.40
60287;DHT22;46141;52.382;5.270;2023-11-18T00:30:41;20.00;71.40
60287;DHT22;46141;52.382;5.270;2023-11-18T00:33:06;20.00;71.40
60287;DHT22;46141;52.382;5.270;2023-11-18T00:35:32;19.90;71.40
60287;DHT22;46141;52.382;5.270;2023-11-18T00:37:59;19.90;71.30
60287;DHT22;46141;52.382;5.270;2023-11-18T00:40:25;19.90;71.40
60287;DHT22;46141;52.382;5.270;2023-11-18T00:42:51;19.90;71.40
60287;DHT22;46141;52.382;5.270;2023-11-18T00:45:16;19.90;71.30
60287;DHT22;46141;52.382;5.270;2023-11-18T00:47:43;19.80;71.40
60287;DHT22;46141;52.382;5.270;2023-11-18T00:50:09;19.80;71.40
60287;DHT22;46141;52.382;5.270;2023-11-18T00:52:35;19.80;71.30
60287;DHT22;46141;52.382;5.270;2023-11-18T00:55:04;19.80;71.30
60287;DHT22;46141;52.382;5.270;2023-11-18T00:57:31;19.80;71.30
60287;DHT22;46141;52.382;5.270;2023-11-18T00:59:57;19.80;71.40
60287;DHT22;46141;52.382;5.270;2023-11-18T01:02:23;19.80;71.40
60287;DHT22;46141;52.382;5.270;2023-11-18T01:04:49;19.80;71.30
60287;DHT22;46141;52.382;5.270;2023-11-18T01:07:16;19.70;71.30
60287;DHT22;46141;52.382;5.270;2023-11-18T01:09:41;19.70;71.40
60287;DHT22;46141;52.382;5.270;2023-11-18T01:12:07;19.70;71.40
60287;DHT22;46141;52.382;5.270;2023-11-18T01:14:38;19.70;71.30
60287;DHT22;46141;52.382;5.270;2023-11-18T01:17:08;19.60;71.40
60287;DHT22;46141;52.382;5.270;2023-11-18T01:19:37;19.70;71.40
60287;DHT22;46141;52.382;5.270;2023-11-18T01:22:03;19.60;72.10
60287;DHT22;46141;52.382;5.270;2023-11-18T01:24:31;19.70;71.50
60287;DHT22;46141;52.382;5.270;2023-11-18T01:26:58;19.60;71.50
60287;DHT22;46141;52.382;5.270;2023-11-18T01:29:24;19.60;71.40
60287;DHT22;46141;52.382;5.270;2023-11-18T01:31:50;19.60;71.50
60287;DHT22;46141;52.382;5.270;2023-11-18T01:34:16;19.60;71.40
60287;DHT22;46141;52.382;5.270;2023-11-18T01:36:42;19.60;71.40
60287;DHT22;46141;52.382;5.270;2023-11-18T01:39:09;19.60;71.40
60287;DHT22;46141;52.382;5.270;2023-11-18T01:41:35;19.60;71.40
60287;DHT22;46141;52.382;5.270;2023-11-18T01:44:01;19.50;71.50
60287;DHT22;46141;52.382;5.270;2023-11-18T01:46:27;19.60;71.60
60287;DHT22;46141;52.382;5.270;2023-11-18T01:48:56;19.50;72.10
60287;DHT22;46141;52.382;5.270;2023-11-18T01:51:22;19.50;71.40
60287;DHT22;46141;52.382;5.270;2023-11-18T01:53:49;19.50;71.40
60287;DHT22;46141;52.382;5.270;2023-11-18T01:56:16;19.50;71.60
60287;DHT22;46141;52.382;5.270;2023-11-18T01:58:42;19.50;71.60
60287;DHT22;46141;52.382;5.270;2023-11-18T02:01:07;19.40;71.50
60287;DHT22;46141;52.382;5.270;2023-11-18T02:03:34;19.40;71.50
60287;DHT22;46141;52.382;5.270;2023-11-18T02:06:03;19.40;71.50
60287;DHT22;46141;52.382;5.270;2023-11-18T02:08:31;19.40;71.50
60287;DHT22;46141;52.382;5.270;2023-11-18T02:11:48;19.40;71.60
60287;DHT22;46141;52.382;5.270;2023-11-18T02:14:00;19.40;71.60
60287;DHT22;46141;52.382;5.270;2023-11-18T02:16:30;19.30;71.60
60287;DHT22;46141;52.382;5.270;2023-11-18T02:18:57;19.30;71.60
60287;DHT22;46141;52.382;5.270;2023-11-18T02:21:25;19.30;71.50
60287;DHT22;46141;52.382;5.270;2023-11-18T02:23:52;19.30;71.60
60287;DHT22;46141;52.382;5.270;2023-11-18T02:26:27;19.30;71.60
60287;DHT22;46141;52.382;5.270;2023-11-18T02:28:52;19.30;71.60
60287;DHT22;46141;52.382;5.270;2023-11-18T02:31:34;19.20;71.70
60287;DHT22;46141;52.382;5.270;2023-11-18T02:34:13;19.20;71.50
60287;DHT22;46141;52.382;5.270;2023-11-18T02:36:45;19.20;71.60
60287;DHT22;46141;52.382;5.270;2023-11-18T02:39:22;19.20;71.70
60287;DHT22;46141;52.382;5.270;2023-11-18T02:41:52;19.20;71.50
60287;DHT22;46141;52.382;5.270;2023-11-18T02:44:23;19.20;71.60
60287;DHT22;46141;52.382;5.270;2023-11-18T02:46:50;19.10;71.70
60287;DHT22;46141;52.382;5.270;2023-11-18T02:49:16;19.10;71.70
60287;DHT22;46141;52.382;5.270;2023-11-18T02:51:43;19.10;71.60
60287;DHT22;46141;52.382;5.270;2023-11-18T02:54:13;19.10;71.70
60287;DHT22;46141;52.382;5.270;2023-11-18T02:56:39;19.10;71.80
60287;DHT22;46141;52.382;5.270;2023-11-18T02:59:05;19.10;71.70
60287;DHT22;46141;52.382;5.270;2023-11-18T03:01:32;19.10;71.80
60287;DHT22;46141;52.382;5.270;2023-11-18T03:03:59;19.00;71.70
60287;DHT22;46141;52.382;5.270;2023-11-18T03:06:25;19.10;71.70
60287;DHT22;46141;52.382;5.270;2023-11-18T03:08:52;19.00;71.60
60287;DHT22;46141;52.382;5.270;2023-11-18T03:11:18;19.00;71.70
60287;DHT22;46141;52.382;5.270;2023-11-18T03:13:44;19.00;71.80
60287;DHT22;46141;52.382;5.270;2023-11-18T03:16:11;19.00;71.90
60287;DHT22;46141;52.382;5.270;2023-11-18T03:18:42;19.00;71.80
60287;DHT22;46141;52.382;5.270;2023-11-18T03:21:14;19.00;71.70
60287;DHT22;46141;52.382;5.270;2023-11-18T03:23:41;18.90;71.80
60287;DHT22;46141;52.382;5.270;2023-11-18T03:26:09;18.90;71.80
60287;DHT22;46141;52.382;5.270;2023-11-18T03:28:38;18.90;71.70
60287;DHT22;46141;52.382;5.270;2023-11-18T03:31:06;18.90;71.90
60287;DHT22;46141;52.382;5.270;2023-11-18T03:33:32;18.90;71.80
60287;DHT22;46141;52.382;5.270;2023-11-18T03:35:58;18.90;71.80
60287;DHT22;46141;52.382;5.270;2023-11-18T03:38:25;18.90;71.80
60287;DHT22;46141;52.382;5.270;2023-11-18T03:40:51;18.80;71.80
60287;DHT22;46141;52.382;5.270;2023-11-18T03:43:18;18.80;71.80
60287;DHT22;46141;52.382;5.270;2023-11-18T03:45:45;18.90;71.80
60287;DHT22;46141;52.382;5.270;2023-11-18T03:48:16;18.80;71.70
60287;DHT22;46141;52.382;5.270;2023-11-18T03:50:44;18.80;71.90
60287;DHT22;46141;52.382;5.270;2023-11-18T03:53:11;18.80;71.80
60287;DHT22;46141;52.382;5.270;2023-11-18T03:55:36;18.80;71.80
60287;DHT22;46141;52.382;5.270;2023-11-18T03:58:02;18.80;71.90
60287;DHT22;46141;52.382;5.270;2023-11-18T04:00:28;18.80;71.80
60287;DHT22;46141;52.382;5.270;2023-11-18T04:03:00;18.80;71.80
60287;DHT22;46141;52.382;5.270;2023-11-18T04:05:29;18.80;71.80
60287;DHT22;46141;52.382;5.270;2023-11-18T04:07:54;18.70;71.90
60287;DHT22;46141;52.382;5.270;2023-11-18T04:10:20;18.70;71.90
60287;DHT22;46141;52.382;5.270;2023-11-18T04:12:46;18.70;71.80
60287;DHT22;46141;52.382;5.270;2023-11-18T04:15:13;18.70;72.60
60287;DHT22;46141;52.382;5.270;2023-11-18T04:17:40;18.70;71.90
60287;DHT22;46141;52.382;5.270;2023-11-18T04:20:06;18.70;72.10
60287;DHT22;46141;52.382;5.270;2023-11-18T04:22:42;18.70;72.00
60287;DHT22;46141;52.382;5.270;2023-11-18T04:25:09;18.70;72.00
60287;DHT22;46141;52.382;5.270;2023-11-18T04:27:36;18.70;72.00
60287;DHT22;46141;52.382;5.270;2023-11-18T04:30:02;18.60;71.90
60287;DHT22;46141;52.382;5.270;2023-11-18T04:32:28;18.60;71.90
60287;DHT22;46141;52.382;5.270;2023-11-18T04:34:53;18.60;71.90
60287;DHT22;46141;52.382;5.270;2023-11-18T04:37:19;18.60;71.90
60287;DHT22;46141;52.382;5.270;2023-11-18T04:39:44;18.60;72.00
60287;DHT22;46141;52.382;5.270;2023-11-18T04:42:10;18.60;72.30
60287;DHT22;46141;52.382;5.270;2023-11-18T04:44:36;18.60;72.10
60287;DHT22;46141;52.382;5.270;2023-11-18T04:47:01;18.60;72.20
60287;DHT22;46141;52.382;5.270;2023-11-18T04:49:27;18.60;72.10
60287;DHT22;46141;52.382;5.270;2023-11-18T04:51:53;18.50;72.10
60287;DHT22;46141;52.382;5.270;2023-11-18T04:54:19;18.60;72.10
60287;DHT22;46141;52.382;5.270;2023-11-18T04:56:45;18.60;72.40
60287;DHT22;46141;52.382;5.270;2023-11-18T04:59:11;18.60;71.90
60287;DHT22;46141;52.382;5.270;2023-11-18T05:01:37;18.50;71.90
60287;DHT22;46141;52.382;5.270;2023-11-18T05:04:03;18.50;71.90
60287;DHT22;46141;52.382;5.270;2023-11-18T05:06:29;18.50;71.90
60287;DHT22;46141;52.382;5.270;2023-11-18T05:08:55;18.50;72.00
60287;DHT22;46141;52.382;5.270;2023-11-18T05:11:20;18.50;72.00
60287;DHT22;46141;52.382;5.270;2023-11-18T05:13:46;18.50;71.90
60287;DHT22;46141;52.382;5.270;2023-11-18T05:16:11;18.50;72.00
60287;DHT22;46141;52.382;5.270;2023-11-18T05:18:37;18.40;71.90
60287;DHT22;46141;52.382;5.270;2023-11-18T05:21:05;18.40;71.90
60287;DHT22;46141;52.382;5.270;2023-11-18T05:23:31;18.40;71.90
60287;DHT22;46141;52.382;5.270;2023-11-18T05:25:57;18.50;71.80
60287;DHT22;46141;52.382;5.270;2023-11-18T05:28:26;18.40;71.70
60287;DHT22;46141;52.382;5.270;2023-11-18T05:30:52;18.40;71.80
60287;DHT22;46141;52.382;5.270;2023-11-18T05:33:18;18.40;71.80
60287;DHT22;46141;52.382;5.270;2023-11-18T05:35:44;18.40;71.70
60287;DHT22;46141;52.382;5.270;2023-11-18T05:38:18;18.40;71.60
60287;DHT22;46141;52.382;5.270;2023-11-18T05:40:47;18.40;71.70
60287;DHT22;46141;52.382;5.270;2023-11-18T05:43:24;18.40;71.60
60287;DHT22;46141;52.382;5.270;2023-11-18T05:45:53;18.40;71.60
60287;DHT22;46141;52.382;5.270;2023-11-18T05:48:42;18.40;71.60
60287;DHT22;46141;52.382;5.270;2023-11-18T05:51:08;18.40;71.70
60287;DHT22;46141;52.382;5.270;2023-11-18T05:53:33;18.30;71.60
60287;DHT22;46141;52.382;5.270;2023-11-18T05:55:59;18.30;71.60
60287;DHT22;46141;52.382;5.270;2023-11-18T05:58:25;18.30;71.60
60287;DHT22;46141;52.382;5.270;2023-11-18T06:00:50;18.30;71.70
60287;DHT22;46141;52.382;5.270;2023-11-18T06:03:16;18.30;71.70
60287;DHT22;46141;52.382;5.270;2023-11-18T06:05:45;18.30;71.50
60287;DHT22;46141;52.382;5.270;2023-11-18T06:08:12;18.30;71.60
60287;DHT22;46141;52.382;5.270;2023-11-18T06:10:38;18.30;71.70
60287;DHT22;46141;52.382;5.270;2023-11-18T06:13:04;18.30;71.60
60287;DHT22;46141;52.382;5.270;2023-11-18T06:15:29;18.30;71.60
60287;DHT22;46141;52.382;5.270;2023-11-18T06:17:55;18.20;71.50
60287;DHT22;46141;52.382;5.270;2023-11-18T06:20:21;18.20;71.50
60287;DHT22;46141;52.382;5.270;2023-11-18T06:22:49;18.20;71.70
60287;DHT22;46141;52.382;5.270;2023-11-18T06:25:14;18.20;71.60
60287;DHT22;46141;52.382;5.270;2023-11-18T06:27:43;18.20;71.60
60287;DHT22;46141;52.382;5.270;2023-11-18T06:30:11;18.20;71.60
60287;DHT22;46141;52.382;5.270;2023-11-18T06:32:37;18.10;71.50
60287;DHT22;46141;52.382;5.270;2023-11-18T06:35:04;18.10;71.50
60287;DHT22;46141;52.382;5.270;2023-11-18T06:37:34;18.10;71.40
60287;DHT22;46141;52.382;5.270;2023-11-18T06:40:00;18.20;71.50
60287;DHT22;46141;52.382;5.270;2023-11-18T06:42:26;18.10;71.50
60287;DHT22;46141;52.382;5.270;2023-11-18T06:44:52;18.20;71.60
60287;DHT22;46141;52.382;5.270;2023-11-18T06:47:17;18.10;71.50
60287;DHT22;46141;52.382;5.270;2023-11-18T06:49:44;18.10;71.60
60287;DHT22;46141;52.382;5.270;2023-11-18T06:52:10;18.10;71.60
60287;DHT22;46141;52.382;5.270;2023-11-18T06:54:41;18.10;71.60
60287;DHT22;46141;52.382;5.270;2023-11-18T06:57:07;18.10;71.60
60287;DHT22;46141;52.382;5.270;2023-11-18T06:59:32;18.00;71.60
60287;DHT22;46141;52.382;5.270;2023-11-18T07:01:58;18.00;71.50
60287;DHT22;46141;52.382;5.270;2023-11-18T07:04:27;18.10;71.50
60287;DHT22;46141;52.382;5.270;2023-11-18T07:06:53;18.00;71.50
60287;DHT22;46141;52.382;5.270;2023-11-18T07:09:18;18.00;71.50
60287;DHT22;46141;52.382;5.270;2023-11-18T07:11:47;18.00;71.50
60287;DHT22;46141;52.382;5.270;2023-11-18T07:14:13;18.00;71.40
60287;DHT22;46141;52.382;5.270;2023-11-18T07:16:41;18.00;71.40
60287;DHT22;46141;52.382;5.270;2023-11-18T07:19:09;18.00;71.40
60287;DHT22;46141;52.382;5.270;2023-11-18T07:21:46;18.00;71.50
60287;DHT22;46141;52.382;5.270;2023-11-18T07:24:11;18.00;71.40
60287;DHT22;46141;52.382;5.270;2023-11-18T07:26:37;18.00;71.30
60287;DHT22;46141;52.382;5.270;2023-11-18T07:29:03;18.00;71.40
60287;DHT22;46141;52.382;5.270;2023-11-18T07:31:29;18.00;71.40
60287;DHT22;46141;52.382;5.270;2023-11-18T07:33:54;18.00;71.40
60287;DHT22;46141;52.382;5.270;2023-11-18T07:36:21;18.00;71.40
60287;DHT22;46141;52.382;5.270;2023-11-18T07:38:47;17.90;71.40
60287;DHT22;46141;52.382;5.270;2023-11-18T07:41:13;18.00;71.40
60287;DHT22;46141;52.382;5.270;2023-11-18T07:43:53;17.90;71.30
60287;DHT22;46141;52.382;5.270;2023-11-18T07:46:20;17.90;71.20
60287;DHT22;46141;52.382;5.270;2023-11-18T07:48:49;17.90;71.30
60287;DHT22;46141;52.382;5.270;2023-11-18T07:51:15;17.90;71.00
60287;DHT22;46141;52.382;5.270;2023-11-18T07:53:41;17.90;71.60
60287;DHT22;46141;52.382;5.270;2023-11-18T07:56:07;17.90;70.70
60287;DHT22;46141;52.382;5.270;2023-11-18T07:58:36;17.90;71.00
60287;DHT22;46141;52.382;5.270;2023-11-18T08:01:03;17.90;71.20
60287;DHT22;46141;52.382;5.270;2023-11-18T08:03:39;17.90;71.10
60287;DHT22;46141;52.382;5.270;2023-11-18T08:06:06;17.80;71.40
60287;DHT22;46141;52.382;5.270;2023-11-18T08:08:35;17.90;71.70
60287;DHT22;46141;52.382;5.270;2023-11-18T08:11:09;17.80;71.60
60287;DHT22;46141;52.382;5.270;2023-11-18T08:13:35;17.90;71.60
60287;DHT22;46141;52.382;5.270;2023-11-18T08:16:01;18.00;71.50
60287;DHT22;46141;52.382;5.270;2023-11-18T08:18:27;18.00;71.30
60287;DHT22;46141;52.382;5.270;2023-11-18T08:20:56;18.00;71.20
60287;DHT22;46141;52.382;5.270;2023-11-18T08:23:22;18.10;71.10
60287;DHT22;46141;52.382;5.270;2023-11-18T08:25:48;18.10;71.40
60287;DHT22;46141;52.382;5.270;2023-11-18T08:28:16;18.20;71.40
60287;DHT22;46141;52.382;5.270;2023-11-18T08:30:41;18.30;71.70
60287;DHT22;46141;52.382;5.270;2023-11-18T08:33:07;18.30;71.80
60287;DHT22;46141;52.382;5.270;2023-11-18T08:35:36;18.30;71.80
60287;DHT22;46141;52.382;5.270;2023-11-18T08:38:02;18.40;72.20
60287;DHT22;46141;52.382;5.270;2023-11-18T08:40:30;18.50;72.10
60287;DHT22;46141;52.382;5.270;2023-11-18T08:42:56;18.50;72.40
60287;DHT22;46141;52.382;5.270;2023-11-18T08:45:23;18.60;72.30
60287;DHT22;46141;52.382;5.270;2023-11-18T08:48:00;18.60;72.50
60287;DHT22;46141;52.382;5.270;2023-11-18T08:50:28;18.60;73.30
60287;DHT22;46141;52.382;5.270;2023-11-18T08:52:55;18.70;73.10
60287;DHT22;46141;52.382;5.270;2023-11-18T08:55:28;18.70;73.40
60287;DHT22;46141;52.382;5.270;2023-11-18T08:58:06;18.70;73.40
60287;DHT22;46141;52.382;5.270;2023-11-18T09:00:44;18.80;73.30
60287;DHT22;46141;52.382;5.270;2023-11-18T09:05:57;18.90;73.40
60287;DHT22;46141;52.382;5.270;2023-11-18T09:08:36;18.90;73.30
60287;DHT22;46141;52.382;5.270;2023-11-18T09:11:10;19.00;73.40
60287;DHT22;46141;52.382;5.270;2023-11-18T09:13:44;19.10;73.40
60287;DHT22;46141;52.382;5.270;2023-11-18T09:16:25;19.10;73.30
60287;DHT22;46141;52.382;5.270;2023-11-18T09:18:55;19.20;73.00
60287;DHT22;46141;52.382;5.270;2023-11-18T09:21:21;19.20;73.10
60287;DHT22;46141;52.382;5.270;2023-11-18T09:23:54;19.30;73.10
60287;DHT22;46141;52.382;5.270;2023-11-18T09:26:22;19.30;72.90
60287;DHT22;46141;52.382;5.270;2023-11-18T09:28:47;19.40;72.20
60287;DHT22;46141;52.382;5.270;2023-11-18T09:31:15;19.50;72.20
60287;DHT22;46141;52.382;5.270;2023-11-18T09:33:45;19.50;72.00
60287;DHT22;46141;52.382;5.270;2023-11-18T09:36:18;19.50;72.40
60287;DHT22;46141;52.382;5.270;2023-11-18T09:38:45;19.60;72.40
60287;DHT22;46141;52.382;5.270;2023-11-18T09:41:13;19.60;72.50
60287;DHT22;46141;52.382;5.270;2023-11-18T09:43:40;19.60;72.40
60287;DHT22;46141;52.382;5.270;2023-11-18T09:46:14;19.70;72.40
60287;DHT22;46141;52.382;5.270;2023-11-18T09:48:45;19.70;72.60
60287;DHT22;46141;52.382;5.270;2023-11-18T09:51:15;19.70;72.50
60287;DHT22;46141;52.382;5.270;2023-11-18T09:53:45;19.80;72.60
60287;DHT22;46141;52.382;5.270;2023-11-18T09:56:21;19.80;72.40
60287;DHT22;46141;52.382;5.270;2023-11-18T09:59:10;19.90;72.40
60287;DHT22;46141;52.382;5.270;2023-11-18T10:01:43;19.90;72.30
60287;DHT22;46141;52.382;5.270;2023-11-18T10:04:13;20.00;71.00
60287;DHT22;46141;52.382;5.270;2023-11-18T10:06:39;20.10;71.70
60287;DHT22;46141;52.382;5.270;2023-11-18T10:09:10;20.10;71.90
60287;DHT22;46141;52.382;5.270;2023-11-18T10:11:44;20.20;71.70
60287;DHT22;46141;52.382;5.270;2023-11-18T10:14:16;20.20;71.80
60287;DHT22;46141;52.382;5.270;2023-11-18T10:16:43;20.20;71.60
60287;DHT22;46141;52.382;5.270;2023-11-18T10:19:12;20.30;70.70
60287;DHT22;46141;52.382;5.270;2023-11-18T10:21:39;20.40;71.20
60287;DHT22;46141;52.382;5.270;2023-11-18T10:24:08;20.40;71.40
60287;DHT22;46141;52.382;5.270;2023-11-18T10:26:43;20.50;72.00
60287;DHT22;46141;52.382;5.270;2023-11-18T10:29:14;20.40;71.50
60287;DHT22;46141;52.382;5.270;2023-11-18T10:31:40;20.60;71.00
60287;DHT22;46141;52.382;5.270;2023-11-18T10:34:14;20.60;70.60
60287;DHT22;46141;52.382;5.270;2023-11-18T10:36:59;20.60;71.00
60287;DHT22;46141;52.382;5.270;2023-11-18T10:39:29;20.60;71.00
60287;DHT22;46141;52.382;5.270;2023-11-18T10:41:59;20.60;71.20
60287;DHT22;46141;52.382;5.270;2023-11-18T10:44:25;20.60;71.00
60287;DHT22;46141;52.382;5.270;2023-11-18T10:46:53;20.70;71.10
60287;DHT22;46141;52.382;5.270;2023-11-18T10:49:20;20.70;71.00
60287;DHT22;46141;52.382;5.270;2023-11-18T10:51:46;20.70;71.20
60287;DHT22;46141;52.382;5.270;2023-11-18T10:54:13;20.80;70.20
60287;DHT22;46141;52.382;5.270;2023-11-18T10:56:49;20.90;70.60
60287;DHT22;46141;52.382;5.270;2023-11-18T10:59:16;20.90;70.90
60287;DHT22;46141;52.382;5.270;2023-11-18T11:01:43;20.90;70.80
60287;DHT22;46141;52.382;5.270;2023-11-18T11:04:13;21.00;70.50
60287;DHT22;46141;52.382;5.270;2023-11-18T11:06:47;21.00;70.20
60287;DHT22;46141;52.382;5.270;2023-11-18T11:09:19;21.00;70.40
60287;DHT22;46141;52.382;5.270;2023-11-18T11:11:56;21.00;70.60
60287;DHT22;46141;52.382;5.270;2023-11-18T11:14:27;21.10;69.90
60287;DHT22;46141;52.382;5.270;2023-11-18T11:17:07;21.10;70.00
60287;DHT22;46141;52.382;5.270;2023-11-18T11:19:55;21.00;69.90
60287;DHT22;46141;52.382;5.270;2023-11-18T11:22:28;21.10;69.50
60287;DHT22;46141;52.382;5.270;2023-11-18T11:25:14;21.10;70.00
60287;DHT22;46141;52.382;5.270;2023-11-18T11:27:59;21.10;70.10
60287;DHT22;46141;52.382;5.270;2023-11-18T11:30:44;21.20;69.40
60287;DHT22;46141;52.382;5.270;2023-11-18T11:35:48;21.20;69.90
60287;DHT22;46141;52.382;5.270;2023-11-18T11:38:15;21.20;70.10
60287;DHT22;46141;52.382;5.270;2023-11-18T11:40:42;21.20;70.20
60287;DHT22;46141;52.382;5.270;2023-11-18T11:43:10;21.20;70.30
60287;DHT22;46141;52.382;5.270;2023-11-18T11:45:37;21.20;70.40
60287;DHT22;46141;52.382;5.270;2023-11-18T11:48:06;21.20;70.60
60287;DHT22;46141;52.382;5.270;2023-11-18T11:53:22;21.30;70.80
60287;DHT22;46141;52.382;5.270;2023-11-18T11:55:53;21.30;70.50
60287;DHT22;46141;52.382;5.270;2023-11-18T11:58:29;21.30;70.50
60287;DHT22;46141;52.382;5.270;2023-11-18T12:01:16;21.40;70.00
60287;DHT22;46141;52.382;5.270;2023-11-18T12:03:45;21.40;70.50
60287;DHT22;46141;52.382;5.270;2023-11-18T12:06:17;21.40;70.30
60287;DHT22;46141;52.382;5.270;2023-11-18T12:08:52;21.40;70.30
60287;DHT22;46141;52.382;5.270;2023-11-18T12:11:19;21.40;70.40
60287;DHT22;46141;52.382;5.270;2023-11-18T12:14:08;21.40;70.30
60287;DHT22;46141;52.382;5.270;2023-11-18T12:17:04;21.40;70.20
60287;DHT22;46141;52.382;5.270;2023-11-18T12:19:39;21.40;70.20
60287;DHT22;46141;52.382;5.270;2023-11-18T12:22:18;21.40;70.40
60287;DHT22;46141;52.382;5.270;2023-11-18T12:33:07;21.40;70.10
60287;DHT22;46141;52.382;5.270;2023-11-18T12:41:36;21.50;70.10
60287;DHT22;46141;52.382;5.270;2023-11-18T12:44:14;21.50;70.00
60287;DHT22;46141;52.382;5.270;2023-11-18T12:46:50;21.50;70.10
60287;DHT22;46141;52.382;5.270;2023-11-18T12:49:19;21.50;69.90
60287;DHT22;46141;52.382;5.270;2023-11-18T12:51:55;21.50;69.40
60287;DHT22;46141;52.382;5.270;2023-11-18T12:54:23;21.60;69.50
60287;DHT22;46141;52.382;5.270;2023-11-18T12:56:54;21.60;69.90
60287;DHT22;46141;52.382;5.270;2023-11-18T12:59:20;21.60;70.00
60287;DHT22;46141;52.382;5.270;2023-11-18T13:01:53;21.50;70.00
60287;DHT22;46141;52.382;5.270;2023-11-18T13:04:27;21.50;69.90
60287;DHT22;46141;52.382;5.270;2023-11-18T13:06:54;21.50;69.60
60287;DHT22;46141;52.382;5.270;2023-11-18T13:09:23;21.60;70.30
60287;DHT22;46141;52.382;5.270;2023-11-18T13:11:57;21.60;69.90
60287;DHT22;46141;52.382;5.270;2023-11-18T13:14:27;21.60;70.40
60287;DHT22;46141;52.382;5.270;2023-11-18T13:16:56;21.60;70.10
60287;DHT22;46141;52.382;5.270;2023-11-18T13:19:27;21.60;70.10
60287;DHT22;46141;52.382;5.270;2023-11-18T13:22:03;21.60;69.90
60287;DHT22;46141;52.382;5.270;2023-11-18T13:24:32;21.60;69.90
60287;DHT22;46141;52.382;5.270;2023-11-18T13:27:00;21.60;69.70
60287;DHT22;46141;52.382;5.270;2023-11-18T13:29:30;21.60;69.90
60287;DHT22;46141;52.382;5.270;2023-11-18T13:31:57;21.60;69.70
60287;DHT22;46141;52.382;5.270;2023-11-18T13:34:23;21.60;69.70
60287;DHT22;46141;52.382;5.270;2023-11-18T13:36:51;21.60;70.10
60287;DHT22;46141;52.382;5.270;2023-11-18T13:39:20;21.60;70.00
60287;DHT22;46141;52.382;5.270;2023-11-18T13:41:49;21.60;70.00
60287;DHT22;46141;52.382;5.270;2023-11-18T13:44:34;21.60;69.90
60287;DHT22;46141;52.382;5.270;2023-11-18T13:47:00;21.60;70.10
60287;DHT22;46141;52.382;5.270;2023-11-18T13:49:33;21.70;69.90
60287;DHT22;46141;52.382;5.270;2023-11-18T13:52:02;21.70;69.90
60287;DHT22;46141;52.382;5.270;2023-11-18T13:54:29;21.70;70.00
60287;DHT22;46141;52.382;5.270;2023-11-18T13:57:02;21.70;69.80
60287;DHT22;46141;52.382;5.270;2023-11-18T13:59:29;21.70;69.90
60287;DHT22;46141;52.382;5.270;2023-11-18T14:01:56;21.70;70.00
60287;DHT22;46141;52.382;5.270;2023-11-18T14:04:27;21.70;70.10
60287;DHT22;46141;52.382;5.270;2023-11-18T14:06:58;21.70;70.10
60287;DHT22;46141;52.382;5.270;2023-11-18T14:09:25;21.70;70.10
60287;DHT22;46141;52.382;5.270;2023-11-18T14:11:52;21.70;69.90
60287;DHT22;46141;52.382;5.270;2023-11-18T14:14:21;21.70;69.80
60287;DHT22;46141;52.382;5.270;2023-11-18T14:16:46;21.70;69.90
60287;DHT22;46141;52.382;5.270;2023-11-18T14:19:12;21.70;69.70
60287;DHT22;46141;52.382;5.270;2023-11-18T14:21:42;21.70;69.70
60287;DHT22;46141;52.382;5.270;2023-11-18T14:24:08;21.70;69.50
60287;DHT22;46141;52.382;5.270;2023-11-18T14:26:34;21.70;70.00
60287;DHT22;46141;52.382;5.270;2023-11-18T14:29:00;21.70;69.70
60287;DHT22;46141;52.382;5.270;2023-11-18T14:31:26;21.60;69.70
60287;DHT22;46141;52.382;5.270;2023-11-18T14:33:51;21.60;69.80
60287;DHT22;46141;52.382;5.270;2023-11-18T14:36:18;21.60;70.30
60287;DHT22;46141;52.382;5.270;2023-11-18T14:38:45;21.70;70.30
60287;DHT22;46141;52.382;5.270;2023-11-18T14:41:12;21.70;70.10
60287;DHT22;46141;52.382;5.270;2023-11-18T14:43:37;21.70;70.10
60287;DHT22;46141;52.382;5.270;2023-11-18T14:46:03;21.70;70.10
60287;DHT22;46141;52.382;5.270;2023-11-18T14:48:29;21.70;70.20
60287;DHT22;46141;52.382;5.270;2023-11-18T14:50:55;21.70;69.90
60287;DHT22;46141;52.382;5.270;2023-11-18T14:53:25;21.70;70.20
60287;DHT22;46141;52.382;5.270;2023-11-18T14:55:51;21.70;69.80
60287;DHT22;46141;52.382;5.270;2023-11-18T14:58:16;21.70;70.00
60287;DHT22;46141;52.382;5.270;2023-11-18T15:00:42;21.70;70.10
60287;DHT22;46141;52.382;5.270;2023-11-18T15:03:08;21.70;69.70
60287;DHT22;46141;52.382;5.270;2023-11-18T15:05:35;21.70;69.80
60287;DHT22;46141;52.382;5.270;2023-11-18T15:08:01;21.70;70.00
60287;DHT22;46141;52.382;5.270;2023-11-18T15:10:28;21.70;69.80
60287;DHT22;46141;52.382;5.270;2023-11-18T15:12:56;21.70;70.00
60287;DHT22;46141;52.382;5.270;2023-11-18T15:15:28;21.70;70.10
60287;DHT22;46141;52.382;5.270;2023-11-18T15:17:59;21.70;70.30
60287;DHT22;46141;52.382;5.270;2023-11-18T15:20:25;21.70;70.10
60287;DHT22;46141;52.382;5.270;2023-11-18T15:22:51;21.70;70.50
60287;DHT22;46141;52.382;5.270;2023-11-18T15:25:17;21.70;70.10
60287;DHT22;46141;52.382;5.270;2023-11-18T15:27:44;21.70;70.20
60287;DHT22;46141;52.382;5.270;2023-11-18T15:30:14;21.70;70.30
60287;DHT22;46141;52.382;5.270;2023-11-18T15:32:43;21.70;70.20
60287;DHT22;46141;52.382;5.270;2023-11-18T15:35:09;21.70;70.10
60287;DHT22;46141;52.382;5.270;2023-11-18T15:37:40;21.70;70.30
60287;DHT22;46141;52.382;5.270;2023-11-18T15:40:07;21.70;70.50
60287;DHT22;46141;52.382;5.270;2023-11-18T15:42:43;21.70;71.40
60287;DHT22;46141;52.382;5.270;2023-11-18T15:45:16;21.70;70.60
60287;DHT22;46141;52.382;5.270;2023-11-18T15:47:43;21.80;70.50
60287;DHT22;46141;52.382;5.270;2023-11-18T15:50:12;21.70;70.40
60287;DHT22;46141;52.382;5.270;2023-11-18T15:52:41;21.70;70.40
60287;DHT22;46141;52.382;5.270;2023-11-18T15:55:07;21.70;70.40
60287;DHT22;46141;52.382;5.270;2023-11-18T15:57:37;21.70;70.30
60287;DHT22;46141;52.382;5.270;2023-11-18T16:00:04;21.70;70.50
60287;DHT22;46141;52.382;5.270;2023-11-18T16:02:31;21.70;70.50